MIG1 KLSV-KLSV
Flight info
| Callsign | MIG1 |
|---|---|
| Flight time | 0h 31m |
| Altitude | 20000 |
| Route | DREAM D0045 JAYSN |
| Aircraft | T38/M-DGILORTUVZ/EBI |
Departure
| Time | 2026-04-25 02:40 |
|---|---|
| Airport | Nellis Air Force Base (KLSV) |
Arrival
| Time | 2026-04-25 03:12 |
|---|---|
| Airport | Nellis Air Force Base (KLSV) |
| Time | Latitude | Longitude | Altitude | Speed | Heading |
|---|---|---|---|---|---|
| 2026-04-25 02:20 | 36.23661 | -115.03987 | 1888 ft | 0 kts | 39° |
| 2026-04-25 02:36 | 36.23677 | -115.03962 | 1885 ft | 6 kts | 92° |
| 2026-04-25 02:36 | 36.23647 | -115.03911 | 1885 ft | 9 kts | 128° |
| 2026-04-25 02:36 | 36.23661 | -115.03843 | 1884 ft | 11 kts | 42° |
| 2026-04-25 02:37 | 36.23733 | -115.03763 | 1884 ft | 24 kts | 42° |
| 2026-04-25 02:37 | 36.23872 | -115.03610 | 1884 ft | 28 kts | 41° |
| 2026-04-25 02:37 | 36.24025 | -115.03445 | 1884 ft | 30 kts | 41° |
| 2026-04-25 02:37 | 36.24173 | -115.03288 | 1884 ft | 25 kts | 41° |
| 2026-04-25 02:38 | 36.24298 | -115.03151 | 1884 ft | 24 kts | 33° |
| 2026-04-25 02:38 | 36.24446 | -115.03133 | 1885 ft | 21 kts | 2° |
| 2026-04-25 02:38 | 36.24598 | -115.03126 | 1886 ft | 23 kts | 1° |
| 2026-04-25 02:38 | 36.24728 | -115.03076 | 1886 ft | 19 kts | 94° |
| 2026-04-25 02:39 | 36.24721 | -115.02905 | 1885 ft | 19 kts | 92° |
| 2026-04-25 02:39 | 36.24717 | -115.02752 | 1884 ft | 16 kts | 92° |
| 2026-04-25 02:39 | 36.24707 | -115.02601 | 1880 ft | 19 kts | 108° |
| 2026-04-25 02:39 | 36.24604 | -115.02597 | 1878 ft | 15 kts | 221° |
| 2026-04-25 02:40 | 36.24561 | -115.02644 | 1878 ft | 32 kts | 221° |
| 2026-04-25 02:40 | 36.24128 | -115.03111 | 1880 ft | 128 kts | 221° |
| 2026-04-25 02:40 | 36.23291 | -115.04013 | 1983 ft | 184 kts | 220° |
| 2026-04-25 02:40 | 36.22140 | -115.05248 | 2522 ft | 251 kts | 221° |
| 2026-04-25 02:41 | 36.21163 | -115.07177 | 3430 ft | 307 kts | 276° |
| 2026-04-25 02:41 | 36.22554 | -115.09377 | 4549 ft | 350 kts | 314° |
| 2026-04-25 02:41 | 36.24301 | -115.11324 | 6557 ft | 319 kts | 314° |
| 2026-04-25 02:41 | 36.25935 | -115.13141 | 8275 ft | 329 kts | 315° |
| 2026-04-25 02:42 | 36.27743 | -115.15105 | 9457 ft | 356 kts | 319° |
| 2026-04-25 02:42 | 36.29849 | -115.16729 | 10759 ft | 355 kts | 332° |
| 2026-04-25 02:42 | 36.32184 | -115.17750 | 11689 ft | 356 kts | 345° |
| 2026-04-25 02:42 | 36.34659 | -115.18083 | 12564 ft | 358 kts | 351° |
| 2026-04-25 02:43 | 36.37167 | -115.18351 | 13273 ft | 375 kts | 352° |
| 2026-04-25 02:43 | 36.39939 | -115.18681 | 13465 ft | 422 kts | 352° |
| 2026-04-25 02:43 | 36.42970 | -115.18963 | 14209 ft | 446 kts | 356° |
| 2026-04-25 02:43 | 36.45811 | -115.18913 | 15114 ft | 387 kts | 358° |
| 2026-04-25 02:44 | 36.48564 | -115.18573 | 15169 ft | 411 kts | 12° |
| 2026-04-25 02:44 | 36.51384 | -115.17470 | 15366 ft | 435 kts | 15° |
| 2026-04-25 02:44 | 36.54302 | -115.16302 | 15413 ft | 446 kts | 15° |
| 2026-04-25 02:44 | 36.57201 | -115.15139 | 15530 ft | 435 kts | 15° |
| 2026-04-25 02:45 | 36.60095 | -115.13991 | 15861 ft | 423 kts | 13° |
| 2026-04-25 02:45 | 36.62033 | -115.13347 | 16184 ft | 435 kts | 12° |
| 2026-04-25 02:45 | 36.65059 | -115.12361 | 16750 ft | 461 kts | 13° |
| 2026-04-25 02:45 | 36.68195 | -115.11126 | 17539 ft | 482 kts | 15° |
| 2026-04-25 02:46 | 36.71442 | -115.10009 | 17856 ft | 454 kts | 4° |
| 2026-04-25 02:46 | 36.74548 | -115.09617 | 17851 ft | 445 kts | 1° |
| 2026-04-25 02:46 | 36.77616 | -115.09314 | 17883 ft | 448 kts | 1° |
| 2026-04-25 02:46 | 36.80758 | -115.09066 | 17770 ft | 459 kts | 359° |
| 2026-04-25 02:47 | 36.83979 | -115.08983 | 17700 ft | 463 kts | 358° |
| 2026-04-25 02:47 | 36.87197 | -115.08961 | 17695 ft | 464 kts | 357° |
| 2026-04-25 02:47 | 36.90433 | -115.08980 | 17739 ft | 461 kts | 356° |
| 2026-04-25 02:47 | 36.93644 | -115.09012 | 17587 ft | 463 kts | 355° |
| 2026-04-25 02:48 | 36.96851 | -115.09244 | 17529 ft | 461 kts | 353° |
| 2026-04-25 02:48 | 37.00029 | -115.09672 | 17607 ft | 457 kts | 351° |
| 2026-04-25 02:48 | 37.03190 | -115.10116 | 17544 ft | 457 kts | 351° |
| 2026-04-25 02:48 | 37.06221 | -115.10899 | 17296 ft | 442 kts | 314° |
| 2026-04-25 02:49 | 37.08229 | -115.13832 | 17193 ft | 444 kts | 321° |
| 2026-04-25 02:49 | 37.11240 | -115.14690 | 17316 ft | 457 kts | 351° |
| 2026-04-25 02:49 | 37.13911 | -115.13572 | 17277 ft | 452 kts | 82° |
| 2026-04-25 02:49 | 37.14600 | -115.09521 | 17125 ft | 494 kts | 78° |
| 2026-04-25 02:50 | 37.14925 | -115.05121 | 16496 ft | 515 kts | 102° |
| 2026-04-25 02:50 | 37.12782 | -115.03208 | 15644 ft | 430 kts | 233° |
| 2026-04-25 02:50 | 37.13974 | -115.06084 | 14592 ft | 468 kts | 353° |
| 2026-04-25 02:50 | 37.17246 | -115.06732 | 15053 ft | 471 kts | 349° |
| 2026-04-25 02:51 | 37.20388 | -115.07332 | 15202 ft | 458 kts | 349° |
| 2026-04-25 02:51 | 37.23540 | -115.07870 | 15053 ft | 452 kts | 351° |
| 2026-04-25 02:51 | 37.26653 | -115.08340 | 14827 ft | 449 kts | 352° |
| 2026-04-25 02:51 | 37.29659 | -115.09053 | 14966 ft | 427 kts | 310° |
| 2026-04-25 02:52 | 37.31575 | -115.12064 | 14969 ft | 447 kts | 306° |
| 2026-04-25 02:52 | 37.34065 | -115.12592 | 14727 ft | 363 kts | 347° |
| 2026-04-25 02:52 | 37.36735 | -115.13009 | 14957 ft | 404 kts | 15° |
| 2026-04-25 02:52 | 37.37818 | -115.10107 | 14934 ft | 417 kts | 87° |
| 2026-04-25 02:53 | 37.38602 | -115.06723 | 15097 ft | 405 kts | 3° |
| 2026-04-25 02:53 | 37.40579 | -115.05581 | 14850 ft | 355 kts | 42° |
| 2026-04-25 02:53 | 37.41780 | -115.06389 | 13173 ft | 270 kts | 212° |
| 2026-04-25 02:53 | 37.40698 | -115.07996 | 9625 ft | 378 kts | 323° |
| 2026-04-25 02:54 | 37.42910 | -115.07673 | 11877 ft | 183 kts | 25° |
| 2026-04-25 02:54 | 37.43158 | -115.06198 | 12380 ft | 41 kts | 290° |
| 2026-04-25 02:54 | 37.44335 | -115.07376 | 10579 ft | 297 kts | 40° |
| 2026-04-25 02:54 | 37.44095 | -115.06982 | 6450 ft | 357 kts | 263° |
| 2026-04-25 02:55 | 37.44726 | -115.07287 | 9854 ft | 226 kts | 84° |
| 2026-04-25 02:55 | 37.44659 | -115.07777 | 5988 ft | 289 kts | 241° |
| 2026-04-25 02:55 | 37.43353 | -115.07572 | 7902 ft | 278 kts | 74° |
| 2026-04-25 02:55 | 37.44000 | -115.05448 | 6800 ft | 311 kts | 154° |
| 2026-04-25 02:56 | 37.43325 | -115.06801 | 7393 ft | 258 kts | 334° |
| 2026-04-25 02:56 | 37.44771 | -115.07653 | 9617 ft | 220 kts | 290° |
| 2026-04-25 02:56 | 37.44601 | -115.09649 | 10491 ft | 248 kts | 252° |
| 2026-04-25 02:56 | 37.44022 | -115.11648 | 12179 ft | 255 kts | 262° |
| 2026-04-25 02:57 | 37.43464 | -115.13845 | 13372 ft | 277 kts | 246° |
| 2026-04-25 02:57 | 37.42284 | -115.15837 | 14779 ft | 300 kts | 212° |
| 2026-04-25 02:57 | 37.40148 | -115.15942 | 15733 ft | 349 kts | 153° |
| 2026-04-25 02:57 | 37.38249 | -115.13657 | 16152 ft | 408 kts | 134° |
| 2026-04-25 02:58 | 37.36226 | -115.10859 | 16312 ft | 452 kts | 134° |
| 2026-04-25 02:58 | 37.34036 | -115.07872 | 16325 ft | 474 kts | 135° |
| 2026-04-25 02:58 | 37.31737 | -115.04808 | 16216 ft | 488 kts | 135° |
| 2026-04-25 02:58 | 37.29365 | -115.01746 | 16182 ft | 499 kts | 136° |
| 2026-04-25 02:59 | 37.26870 | -114.98627 | 16137 ft | 510 kts | 138° |
| 2026-04-25 02:59 | 37.24302 | -114.95501 | 16156 ft | 517 kts | 139° |
| 2026-04-25 02:59 | 37.21682 | -114.92359 | 16278 ft | 522 kts | 139° |
| 2026-04-25 02:59 | 37.19032 | -114.89213 | 16385 ft | 526 kts | 139° |
| 2026-04-25 03:00 | 37.16384 | -114.86078 | 16393 ft | 531 kts | 139° |
| 2026-04-25 03:00 | 37.13634 | -114.82857 | 16435 ft | 534 kts | 140° |
| 2026-04-25 03:00 | 37.10895 | -114.79709 | 16564 ft | 535 kts | 140° |
| 2026-04-25 03:00 | 37.08159 | -114.76559 | 16825 ft | 533 kts | 140° |
| 2026-04-25 03:01 | 37.05325 | -114.73556 | 15952 ft | 529 kts | 148° |
| 2026-04-25 03:01 | 37.02007 | -114.71789 | 14803 ft | 513 kts | 170° |
| 2026-04-25 03:01 | 36.98517 | -114.71533 | 13721 ft | 496 kts | 185° |
| 2026-04-25 03:01 | 36.95154 | -114.72121 | 12504 ft | 487 kts | 192° |
| 2026-04-25 03:02 | 36.91903 | -114.73045 | 11626 ft | 472 kts | 195° |
| 2026-04-25 03:02 | 36.88813 | -114.74173 | 11078 ft | 448 kts | 200° |
| 2026-04-25 03:02 | 36.85985 | -114.75671 | 10304 ft | 435 kts | 206° |
| 2026-04-25 03:02 | 36.83349 | -114.77394 | 9564 ft | 420 kts | 213° |
| 2026-04-25 03:03 | 36.81150 | -114.79677 | 8525 ft | 402 kts | 228° |
| 2026-04-25 03:03 | 36.79559 | -114.82405 | 7688 ft | 385 kts | 239° |
| 2026-04-25 03:03 | 36.78251 | -114.85258 | 6889 ft | 372 kts | 240° |
| 2026-04-25 03:03 | 36.76956 | -114.87980 | 6209 ft | 357 kts | 236° |
| 2026-04-25 03:04 | 36.75406 | -114.90318 | 5735 ft | 340 kts | 221° |
| 2026-04-25 03:04 | 36.73432 | -114.91796 | 5510 ft | 334 kts | 202° |
| 2026-04-25 03:04 | 36.71152 | -114.92532 | 5027 ft | 346 kts | 189° |
| 2026-04-25 03:05 | 36.66402 | -114.92503 | 4661 ft | 337 kts | 175° |
| 2026-04-25 03:05 | 36.64104 | -114.92161 | 4582 ft | 328 kts | 175° |
| 2026-04-25 03:05 | 36.61870 | -114.91887 | 4425 ft | 324 kts | 179° |
| 2026-04-25 03:05 | 36.59632 | -114.91895 | 4390 ft | 318 kts | 187° |
| 2026-04-25 03:06 | 36.57446 | -114.92312 | 4359 ft | 317 kts | 194° |
| 2026-04-25 03:06 | 36.55324 | -114.92975 | 4288 ft | 318 kts | 197° |
| 2026-04-25 03:06 | 36.53161 | -114.93682 | 4099 ft | 323 kts | 197° |
| 2026-04-25 03:06 | 36.50977 | -114.94382 | 4078 ft | 324 kts | 195° |
| 2026-04-25 03:07 | 36.48768 | -114.95025 | 4025 ft | 324 kts | 194° |
| 2026-04-25 03:07 | 36.46543 | -114.95448 | 4171 ft | 320 kts | 186° |
| 2026-04-25 03:07 | 36.44316 | -114.95276 | 4260 ft | 324 kts | 171° |
| 2026-04-25 03:07 | 36.42113 | -114.94567 | 4275 ft | 331 kts | 167° |
| 2026-04-25 03:08 | 36.39886 | -114.93747 | 4190 ft | 335 kts | 166° |
| 2026-04-25 03:08 | 36.37643 | -114.92861 | 4000 ft | 339 kts | 166° |
| 2026-04-25 03:08 | 36.35375 | -114.92205 | 3823 ft | 328 kts | 184° |
| 2026-04-25 03:08 | 36.33322 | -114.93002 | 3614 ft | 310 kts | 218° |
| 2026-04-25 03:09 | 36.31731 | -114.94749 | 3428 ft | 302 kts | 224° |
| 2026-04-25 03:09 | 36.30169 | -114.96461 | 3275 ft | 299 kts | 221° |
| 2026-04-25 03:09 | 36.28601 | -114.98166 | 3071 ft | 298 kts | 225° |
| 2026-04-25 03:09 | 36.27102 | -114.99943 | 3055 ft | 301 kts | 221° |
| 2026-04-25 03:10 | 36.25483 | -115.01672 | 3020 ft | 313 kts | 221° |
| 2026-04-25 03:10 | 36.23826 | -115.03472 | 3002 ft | 317 kts | 232° |
| 2026-04-25 03:10 | 36.24655 | -115.05002 | 2832 ft | 281 kts | 22° |
| 2026-04-25 03:10 | 36.25764 | -115.03526 | 2781 ft | 190 kts | 46° |
| 2026-04-25 03:11 | 36.25923 | -115.02100 | 2485 ft | 181 kts | 150° |
| 2026-04-25 03:11 | 36.24908 | -115.02238 | 1969 ft | 152 kts | 220° |
| 2026-04-25 03:11 | 36.24218 | -115.02985 | 1888 ft | 108 kts | 221° |
| 2026-04-25 03:11 | 36.23797 | -115.03470 | 1886 ft | 54 kts | 217° |
| 2026-04-25 03:12 | 36.23538 | -115.03758 | 1888 ft | 49 kts | 223° |
| 2026-04-25 03:12 | 36.23332 | -115.03978 | 1887 ft | 34 kts | 221° |
| 2026-04-25 03:12 | 36.23145 | -115.04186 | 1885 ft | 37 kts | 220° |
| 2026-04-25 03:12 | 36.22940 | -115.04400 | 1887 ft | 39 kts | 223° |
| 2026-04-25 03:13 | 36.22739 | -115.04623 | 1888 ft | 33 kts | 226° |
| 2026-04-25 03:13 | 36.22730 | -115.04746 | 1890 ft | 8 kts | 310° |